Terminal Aerodrome Forecast
Issued by NWS Upton, NY

Home | Current Version | Previous Version | Text Only | Print | Product List | Glossary On
Versions: 1 2 3 4 5 6 7 8 9 10 11 12 13 14 15 16 17 18 19 20 21 22 23 24 25 26 27 28 29 30 31
000
FTUS41 KOKX 171333 AAA
TAFJFK
TAF AMD
KJFK 171333Z 1714/1818 33009KT 1 1/2SM -SN BR VV007
      TEMPO 1714/1715 1SM -SN BR
     FM171600 31012KT 3SM -SN BKN015 BKN025 BKN120
     FM171800 31014G20KT P6SM SCT025 BKN120
     FM180600 31012KT P6SM SKC
     FM181400 29009KT P6SM SKC=

USA.gov is the U.S. government's official web portal to all federal, state and local government web resources and services.